createdAt,value
2023-01-23T00:01:20.350Z,25.17
2023-01-23T00:04:15.805Z,24.70
2023-01-23T00:06:51.143Z,25.02
2023-01-23T00:09:36.717Z,27.17
2023-01-23T00:12:08.961Z,26.88
2023-01-23T00:14:57.609Z,26.02
2023-01-23T00:17:53.514Z,26.55
2023-01-23T00:20:26.074Z,25.40
2023-01-23T00:23:15.070Z,24.90
2023-01-23T00:25:44.371Z,24.95
2023-01-23T00:28:16.952Z,26.13
2023-01-23T00:30:58.847Z,24.10
2023-01-23T00:33:38.615Z,25.02
2023-01-23T00:36:35.795Z,24.13
2023-01-23T00:39:30.377Z,24.08
2023-01-23T00:42:08.977Z,23.70
2023-01-23T00:44:49.628Z,24.25
2023-01-23T00:47:43.056Z,22.67
2023-01-23T00:50:22.217Z,23.35
2023-01-23T00:52:54.589Z,20.88
2023-01-23T00:55:24.210Z,21.20
2023-01-23T00:57:56.631Z,19.60
2023-01-23T01:00:45.850Z,20.48
2023-01-23T01:03:42.005Z,20.30
2023-01-23T01:06:36.770Z,19.48
2023-01-23T01:09:06.266Z,20.63
2023-01-23T01:11:35.461Z,19.73
2023-01-23T01:14:07.292Z,22.40
2023-01-23T01:16:54.007Z,20.65
2023-01-23T01:19:43.859Z,19.98
2023-01-23T01:22:18.413Z,20.30
2023-01-23T01:25:14.066Z,18.92
2023-01-23T01:27:43.028Z,18.02
2023-01-23T01:30:16.513Z,18.58
2023-01-23T01:32:57.383Z,19.05
2023-01-23T01:35:30.251Z,19.98
2023-01-23T01:37:59.921Z,20.35
2023-01-23T01:40:41.750Z,20.67
2023-01-23T01:43:35.982Z,18.50
2023-01-23T01:46:28.767Z,19.35
2023-01-23T01:49:32.744Z,18.73
2023-01-23T01:52:13.165Z,18.60
2023-01-23T01:54:57.716Z,19.20
2023-01-23T01:57:58.689Z,19.25
2023-01-23T02:03:24.173Z,17.88
2023-01-23T02:06:05.573Z,18.08
2023-01-23T02:08:58.772Z,17.20
2023-01-23T02:11:27.784Z,15.20
2023-01-23T02:14:00.542Z,17.83
2023-01-23T02:16:44.595Z,17.17
2023-01-23T02:20:02.782Z,18.17
2023-01-23T02:23:00.710Z,16.27
2023-01-23T02:26:10.596Z,16.98
2023-01-23T02:28:56.417Z,16.00
2023-01-23T02:31:45.617Z,15.68
2023-01-23T02:34:45.304Z,15.13
2023-01-23T02:37:44.933Z,16.25
2023-01-23T02:40:30.270Z,15.75
2023-01-23T02:50:02.693Z,14.38
2023-01-23T02:52:37.672Z,14.38
2023-01-23T02:55:12.036Z,13.25
2023-01-23T02:57:40.954Z,13.48
2023-01-23T03:00:29.365Z,14.90
2023-01-23T03:02:58.399Z,14.68
2023-01-23T03:05:27.593Z,13.60
2023-01-23T03:07:56.106Z,15.65
2023-01-23T03:10:24.723Z,14.38
2023-01-23T03:12:53.462Z,13.52
2023-01-23T03:15:22.677Z,13.55
2023-01-23T03:17:53.616Z,16.05
2023-01-23T03:20:27.862Z,13.57
2023-01-23T03:22:58.545Z,15.63
2023-01-23T03:25:33.391Z,13.82
2023-01-23T03:28:04.346Z,15.68
2023-01-23T03:30:33.111Z,15.18
2023-01-23T03:33:08.947Z,14.10
2023-01-23T03:35:38.855Z,14.50
2023-01-23T03:38:08.360Z,14.73
2023-01-23T03:40:56.043Z,13.15
2023-01-23T03:43:37.990Z,13.98
2023-01-23T03:46:07.458Z,14.07
2023-01-23T03:48:49.314Z,13.68
2023-01-23T03:51:24.536Z,14.20
2023-01-23T03:53:53.453Z,13.93
2023-01-23T03:56:22.381Z,14.38
2023-01-23T03:58:57.754Z,13.15
2023-01-23T04:01:27.055Z,12.80
2023-01-23T04:03:55.980Z,12.45
2023-01-23T04:06:28.147Z,11.30
2023-01-23T04:08:58.816Z,13.75
2023-01-23T04:11:30.799Z,11.77
2023-01-23T04:14:11.261Z,14.15
2023-01-23T04:16:40.265Z,12.55
2023-01-23T04:19:12.451Z,11.40
2023-01-23T04:21:41.306Z,11.48
2023-01-23T04:24:12.894Z,11.70
2023-01-23T04:26:42.349Z,12.90
2023-01-23T04:29:13.800Z,12.40
2023-01-23T04:32:05.909Z,10.80
2023-01-23T04:37:18.586Z,11.48
2023-01-23T04:39:56.185Z,11.43
2023-01-23T04:42:25.517Z,10.95
2023-01-23T04:45:09.121Z,11.05
2023-01-23T04:48:01.544Z,11.15
2023-01-23T04:50:58.565Z,12.38
2023-01-23T04:53:58.991Z,11.35
2023-01-23T04:59:19.162Z,11.63
2023-01-23T05:01:49.020Z,12.38
2023-01-23T05:04:18.836Z,11.57
2023-01-23T05:06:51.952Z,11.00
2023-01-23T05:09:23.818Z,11.23
2023-01-23T05:11:54.846Z,13.25
2023-01-23T05:14:26.415Z,12.07
2023-01-23T05:16:58.635Z,12.95
2023-01-23T05:19:44.182Z,13.20
2023-01-23T05:22:18.513Z,13.07
2023-01-23T05:24:51.279Z,13.18
2023-01-23T05:27:45.510Z,12.35
2023-01-23T05:30:18.833Z,14.18
2023-01-23T05:33:10.171Z,15.43
2023-01-23T05:35:52.060Z,16.63
2023-01-23T05:38:20.934Z,15.95
2023-01-23T05:40:51.363Z,16.60
2023-01-23T05:43:43.628Z,16.25
2023-01-23T05:46:31.435Z,16.67
2023-01-23T05:49:03.159Z,16.52
2023-01-23T05:51:41.437Z,16.98
2023-01-23T05:54:11.455Z,16.77
2023-01-23T05:56:46.159Z,16.80
2023-01-23T05:59:33.536Z,19.42
2023-01-23T06:02:28.884Z,17.02
2023-01-23T06:05:05.516Z,20.05
2023-01-23T06:07:59.597Z,20.48
2023-01-23T06:10:29.306Z,18.83
2023-01-23T06:12:58.921Z,20.65
2023-01-23T06:15:31.339Z,20.83
2023-01-23T06:18:40.684Z,20.80
2023-01-23T06:21:14.203Z,21.25
2023-01-23T06:23:44.659Z,22.02
2023-01-23T06:26:14.763Z,20.58
2023-01-23T06:28:43.924Z,23.25
2023-01-23T06:31:16.579Z,23.45
2023-01-23T06:33:52.455Z,23.10
2023-01-23T06:36:35.775Z,22.00
2023-01-23T06:39:21.686Z,23.10
2023-01-23T06:41:52.130Z,22.25
2023-01-23T06:44:24.891Z,22.60
2023-01-23T06:46:55.104Z,22.30
2023-01-23T06:49:26.407Z,22.63
2023-01-23T06:51:56.014Z,24.85
2023-01-23T06:57:34.479Z,24.50
2023-01-23T07:00:06.002Z,22.65
2023-01-23T07:02:35.235Z,22.85
2023-01-23T07:05:49.773Z,25.23
2023-01-23T07:08:25.350Z,22.60
2023-01-23T07:10:55.235Z,23.60
2023-01-23T07:13:24.465Z,25.33
2023-01-23T07:16:17.493Z,26.02
2023-01-23T07:19:30.609Z,23.90
2023-01-23T07:22:01.849Z,23.95
2023-01-23T07:24:33.005Z,23.20
2023-01-23T07:27:05.577Z,22.67
2023-01-23T07:29:35.203Z,22.67
2023-01-23T07:32:11.357Z,23.40
2023-01-23T07:34:40.338Z,23.92
2023-01-23T07:37:09.954Z,25.00
2023-01-23T07:39:38.671Z,22.98
2023-01-23T07:42:07.112Z,22.70
2023-01-23T07:44:35.595Z,20.98
2023-01-23T07:47:03.992Z,20.98
2023-01-23T07:49:32.572Z,20.63
2023-01-23T07:52:01.503Z,22.38
2023-01-23T07:54:30.509Z,21.52
2023-01-23T07:56:59.409Z,21.02
2023-01-23T07:59:31.288Z,22.30
2023-01-23T08:02:00.341Z,20.10
2023-01-23T08:04:42.513Z,21.15
2023-01-23T08:07:11.844Z,20.48
2023-01-23T08:10:00.587Z,18.95
2023-01-23T08:12:35.422Z,18.50
2023-01-23T08:19:36.100Z,18.55
2023-01-23T08:26:17.134Z,18.90
2023-01-23T08:28:46.837Z,18.75
2023-01-23T08:31:22.412Z,18.92
2023-01-23T08:34:27.158Z,19.45
2023-01-23T08:37:22.170Z,18.70
2023-01-23T08:40:57.659Z,16.42
2023-01-23T08:44:02.854Z,17.85
2023-01-23T08:47:28.386Z,17.50
2023-01-23T08:50:54.756Z,16.30
2023-01-23T08:57:03.387Z,16.60
2023-01-23T09:00:11.993Z,17.02
2023-01-23T09:03:12.163Z,16.52
2023-01-23T09:09:45.824Z,16.60
2023-01-23T09:17:46.967Z,15.82
2023-01-23T09:21:23.953Z,15.77
2023-01-23T09:25:01.375Z,15.82
2023-01-23T09:27:58.155Z,16.73
2023-01-23T09:31:08.896Z,17.15
2023-01-23T09:34:16.193Z,18.25
2023-01-23T09:37:21.655Z,17.38
2023-01-23T09:39:54.352Z,18.60
2023-01-23T09:42:33.271Z,17.95
2023-01-23T09:45:55.908Z,17.30
2023-01-23T09:49:48.049Z,17.63
2023-01-23T09:52:38.121Z,19.20
2023-01-23T09:55:27.053Z,17.13
2023-01-23T09:59:20.166Z,17.92
2023-01-23T10:02:46.099Z,18.20
2023-01-23T10:06:11.695Z,18.70
2023-01-23T10:09:31.149Z,18.17
2023-01-23T10:13:19.002Z,18.63
2023-01-23T10:18:53.232Z,18.15
2023-01-23T10:25:34.564Z,23.20
2023-01-23T10:29:28.812Z,23.80
2023-01-23T10:36:54.776Z,23.95
2023-01-23T10:47:13.459Z,23.52
2023-01-23T10:49:54.780Z,27.40
2023-01-23T10:52:39.608Z,24.10
2023-01-23T10:55:37.541Z,26.23
2023-01-23T10:58:16.934Z,28.27
2023-01-23T11:01:05.239Z,28.83
2023-01-23T11:03:42.464Z,29.10
2023-01-23T11:06:26.519Z,30.20
2023-01-23T11:09:00.955Z,29.45
2023-01-23T11:12:49.413Z,37.95
2023-01-23T11:16:32.576Z,39.45
2023-01-23T11:19:19.132Z,33.95
2023-01-23T11:22:01.237Z,33.13
2023-01-23T11:25:17.833Z,36.70
2023-01-23T11:32:08.302Z,30.15
2023-01-23T11:35:36.949Z,32.08
2023-01-23T11:46:58.945Z,37.20
2023-01-23T11:50:54.042Z,37.63
2023-01-23T11:58:03.028Z,32.03
2023-01-23T12:01:34.731Z,35.47
2023-01-23T12:04:32.120Z,33.17
2023-01-23T12:07:25.780Z,42.10
2023-01-23T12:11:13.687Z,40.40
2023-01-23T12:15:29.556Z,46.58
2023-01-23T12:18:51.810Z,41.58
2023-01-23T12:22:19.034Z,36.45
2023-01-23T12:30:35.803Z,34.63
2023-01-23T12:34:33.712Z,35.33
2023-01-23T12:42:11.161Z,30.85
2023-01-23T12:46:02.233Z,32.83
2023-01-23T12:50:17.584Z,29.10
2023-01-23T12:53:43.394Z,31.35
2023-01-23T12:56:40.586Z,28.83
2023-01-23T12:59:25.246Z,25.13
2023-01-23T13:06:50.042Z,24.80
2023-01-23T13:10:23.621Z,18.55
2023-01-23T13:13:27.288Z,18.20
2023-01-23T13:17:26.908Z,17.00
2023-01-23T13:21:52.452Z,16.33
2023-01-23T13:25:17.840Z,14.20
2023-01-23T13:41:21.794Z,14.05
2023-01-23T14:21:55.479Z,3.92
2023-01-23T14:29:11.774Z,5.15
2023-01-23T14:31:46.612Z,4.55
2023-01-23T14:34:49.898Z,3.85
2023-01-23T14:37:53.916Z,3.63
2023-01-23T14:44:20.451Z,4.30
2023-01-23T14:47:34.295Z,4.70
2023-01-23T14:50:51.993Z,4.93
2023-01-23T14:54:02.848Z,4.22
2023-01-23T15:02:58.327Z,3.30
2023-01-23T15:05:39.976Z,3.78
2023-01-23T15:08:35.561Z,4.68
2023-01-23T15:11:42.885Z,5.00
2023-01-23T15:15:06.589Z,4.25
2023-01-23T15:25:57.525Z,3.23
2023-01-23T15:32:45.079Z,3.10
2023-01-23T15:35:37.828Z,2.78
2023-01-23T15:38:28.225Z,3.58
2023-01-23T15:41:17.399Z,3.85
2023-01-23T15:44:37.415Z,3.50
2023-01-23T15:48:05.388Z,3.50
2023-01-23T15:50:42.686Z,3.20
2023-01-23T15:53:22.599Z,3.35
2023-01-23T15:56:38.286Z,5.22
2023-01-23T15:59:18.676Z,2.95
2023-01-23T16:03:02.805Z,3.30
2023-01-23T16:05:41.285Z,3.38
2023-01-23T16:11:43.696Z,3.78
2023-01-23T16:14:44.107Z,3.38
2023-01-23T16:17:37.563Z,3.58
2023-01-23T16:20:17.386Z,4.30
2023-01-23T16:26:36.746Z,4.57
2023-01-23T16:29:17.650Z,4.30
2023-01-23T16:31:50.176Z,4.40
2023-01-23T16:34:19.803Z,3.90
2023-01-23T16:36:55.947Z,4.13
2023-01-23T16:39:34.175Z,4.43
2023-01-23T16:42:41.909Z,4.00
2023-01-23T16:45:56.347Z,3.92
2023-01-23T16:48:32.745Z,4.13
2023-01-23T16:52:31.193Z,4.45
2023-01-23T16:56:11.767Z,3.70
2023-01-23T17:03:54.583Z,3.53
2023-01-23T17:07:49.045Z,3.78
2023-01-23T17:10:37.822Z,4.35
2023-01-23T17:14:00.929Z,4.20
2023-01-23T17:17:58.679Z,4.38
2023-01-23T17:20:32.585Z,4.32
2023-01-23T17:33:10.899Z,3.67
2023-01-23T17:35:47.467Z,4.10
2023-01-23T17:38:41.105Z,3.65
2023-01-23T17:41:21.788Z,4.05
2023-01-23T17:44:25.271Z,3.53
2023-01-23T17:47:02.902Z,4.45
2023-01-23T17:56:21.572Z,6.05
2023-01-23T18:03:40.535Z,5.03
2023-01-23T18:06:12.698Z,6.07
2023-01-23T18:08:43.529Z,5.60
2023-01-23T18:11:20.885Z,7.20
2023-01-23T18:14:08.028Z,7.47
2023-01-23T18:16:45.763Z,8.32
2023-01-23T18:19:23.758Z,5.25
2023-01-23T18:21:54.828Z,6.45
2023-01-23T18:24:31.182Z,7.00
2023-01-23T18:27:20.814Z,7.47
2023-01-23T18:30:03.897Z,6.93
2023-01-23T18:32:59.810Z,5.25
2023-01-23T18:35:48.687Z,6.70
2023-01-23T18:38:46.862Z,7.82
2023-01-23T18:41:25.156Z,7.00
2023-01-23T18:44:11.659Z,7.25
2023-01-23T18:46:41.762Z,7.38
2023-01-23T18:49:14.918Z,8.65
2023-01-23T18:52:17.427Z,9.32
2023-01-23T18:55:01.450Z,8.60
2023-01-23T18:57:51.039Z,7.78
2023-01-23T19:00:36.290Z,6.53
2023-01-23T19:03:16.266Z,6.97
2023-01-23T19:05:48.933Z,6.43
2023-01-23T19:08:33.790Z,5.95
2023-01-23T19:11:07.090Z,5.38
2023-01-23T19:13:47.492Z,6.43
2023-01-23T19:16:34.360Z,5.25
2023-01-23T19:19:15.734Z,5.55
2023-01-23T19:21:47.452Z,5.93
2023-01-23T19:24:19.585Z,5.82
2023-01-23T19:26:48.233Z,6.00
2023-01-23T19:29:22.134Z,7.25
2023-01-23T19:32:06.602Z,8.75
2023-01-23T19:34:35.212Z,7.88
2023-01-23T19:37:04.341Z,7.65
2023-01-23T19:39:32.594Z,8.95
2023-01-23T19:42:01.064Z,7.90
2023-01-23T19:44:32.193Z,7.88
2023-01-23T19:47:00.171Z,7.28
2023-01-23T19:49:27.981Z,8.00
2023-01-23T19:51:55.984Z,6.75
2023-01-23T19:54:24.548Z,6.60
2023-01-23T19:56:52.895Z,7.57
2023-01-23T19:59:21.211Z,7.15
2023-01-23T20:01:52.343Z,6.85
2023-01-23T20:04:23.487Z,6.00
2023-01-23T20:06:54.504Z,5.43
2023-01-23T20:09:22.920Z,6.10
2023-01-23T20:11:52.420Z,7.50
2023-01-23T20:14:22.372Z,6.85
2023-01-23T20:16:50.665Z,7.43
2023-01-23T20:19:19.208Z,8.20
2023-01-23T20:21:48.688Z,7.00
2023-01-23T20:24:17.279Z,6.65
2023-01-23T20:26:46.680Z,7.35
2023-01-23T20:29:15.116Z,6.28
2023-01-23T20:31:43.290Z,8.05
2023-01-23T20:34:11.296Z,7.13
2023-01-23T20:36:39.397Z,7.30
2023-01-23T20:39:07.432Z,6.68
2023-01-23T20:41:35.505Z,6.57
2023-01-23T20:44:03.787Z,6.82
2023-01-23T20:46:32.580Z,7.68
2023-01-23T20:49:02.228Z,6.60
2023-01-23T20:51:30.776Z,6.10
2023-01-23T20:53:59.007Z,6.63
2023-01-23T20:56:30.272Z,6.68
2023-01-23T20:59:17.612Z,6.55
2023-01-23T21:02:05.187Z,8.30
2023-01-23T21:04:35.527Z,7.85
2023-01-23T21:07:04.783Z,8.15
2023-01-23T21:09:32.781Z,8.07
2023-01-23T21:12:00.751Z,6.85
2023-01-23T21:14:29.015Z,7.60
2023-01-23T21:16:58.994Z,6.78
2023-01-23T21:20:24.610Z,7.72
2023-01-23T21:23:40.052Z,6.03
2023-01-23T21:26:32.741Z,7.68
2023-01-23T21:29:29.787Z,6.63
2023-01-23T21:32:27.776Z,7.80
2023-01-23T21:35:08.104Z,6.18
2023-01-23T21:41:17.648Z,6.25
2023-01-23T21:44:08.170Z,5.78
2023-01-23T21:46:53.332Z,6.18
2023-01-23T21:49:31.480Z,6.68
2023-01-23T21:52:03.543Z,6.85
2023-01-23T21:58:08.937Z,6.43
2023-01-23T22:00:59.734Z,8.55
2023-01-23T22:03:36.276Z,7.88
2023-01-23T22:06:40.671Z,8.10
2023-01-23T22:09:29.635Z,6.97
2023-01-23T22:12:53.698Z,6.57
2023-01-23T22:15:29.613Z,6.32
2023-01-23T22:18:14.339Z,6.07
2023-01-23T22:20:57.998Z,7.10
2023-01-23T22:23:36.146Z,6.85
2023-01-23T22:26:12.760Z,5.80
2023-01-23T22:28:45.306Z,5.47
2023-01-23T22:31:18.482Z,6.88
2023-01-23T22:33:51.422Z,6.80
2023-01-23T22:37:03.690Z,6.93
2023-01-23T22:39:37.104Z,6.75
2023-01-23T22:42:15.522Z,7.03
2023-01-23T22:45:27.923Z,6.43
2023-01-23T22:48:18.501Z,8.10
2023-01-23T22:51:29.439Z,8.48
2023-01-23T22:54:18.950Z,7.70
2023-01-23T22:56:50.654Z,9.27
2023-01-23T22:59:25.283Z,8.30
2023-01-23T23:02:08.121Z,6.68
2023-01-23T23:04:39.910Z,6.57
2023-01-23T23:07:13.721Z,5.95
2023-01-23T23:09:43.255Z,7.68
2023-01-23T23:12:13.918Z,7.18
2023-01-23T23:14:46.052Z,6.75
2023-01-23T23:17:18.184Z,6.25
2023-01-23T23:20:11.415Z,7.13
2023-01-23T23:22:44.079Z,8.00
2023-01-23T23:25:13.974Z,7.03
2023-01-23T23:27:47.234Z,7.78
2023-01-23T23:30:19.766Z,6.47
2023-01-23T23:33:38.916Z,6.72
2023-01-23T23:36:11.836Z,6.88
2023-01-23T23:42:09.824Z,7.10
2023-01-23T23:44:43.291Z,7.00
2023-01-23T23:47:17.916Z,6.55
2023-01-23T23:50:22.339Z,6.05
2023-01-23T23:53:38.845Z,6.55
2023-01-23T23:56:32.890Z,6.95
2023-01-23T23:59:05.309Z,6.53
